createdAt,value
2022-11-12T00:00:07.005Z,829.82
2022-11-12T00:01:07.017Z,829.82
2022-11-12T00:02:07.084Z,829.79
2022-11-12T00:03:07.046Z,829.80
2022-11-12T00:04:07.059Z,829.82
2022-11-12T00:05:07.067Z,829.82
2022-11-12T00:06:07.073Z,829.79
2022-11-12T00:07:07.108Z,829.84
2022-11-12T00:08:07.097Z,829.75
2022-11-12T00:09:07.112Z,829.82
2022-11-12T00:10:07.121Z,829.80
2022-11-12T00:11:07.144Z,829.84
2022-11-12T00:12:07.145Z,829.84
2022-11-12T00:13:07.173Z,829.82
2022-11-12T00:14:07.167Z,829.85
2022-11-12T00:15:07.296Z,829.84
2022-11-12T00:16:07.189Z,829.83
2022-11-12T00:17:07.203Z,829.82
2022-11-12T00:18:07.214Z,829.81
2022-11-12T00:19:07.228Z,829.82
2022-11-12T00:20:07.235Z,829.83
2022-11-12T00:21:07.255Z,829.83
2022-11-12T00:22:07.258Z,829.83
2022-11-12T00:23:07.273Z,829.84
2022-11-12T00:24:07.285Z,829.83
2022-11-12T00:25:07.296Z,829.81
2022-11-12T00:26:07.306Z,829.82
2022-11-12T00:27:07.322Z,829.80
2022-11-12T00:28:07.342Z,829.82
2022-11-12T00:29:07.344Z,829.83
2022-11-12T00:30:07.352Z,829.82
2022-11-12T00:31:07.477Z,829.83
2022-11-12T00:32:07.405Z,829.86
2022-11-12T00:33:07.390Z,829.82
2022-11-12T00:34:07.398Z,829.85
2022-11-12T00:35:12.464Z,829.83
2022-11-12T00:36:07.422Z,829.82
2022-11-12T00:37:07.434Z,829.76
2022-11-12T00:38:07.446Z,829.78
2022-11-12T00:39:07.460Z,829.77
2022-11-12T00:40:07.466Z,829.76
2022-11-12T00:41:07.479Z,829.74
2022-11-12T00:42:07.489Z,829.78
2022-11-12T00:43:07.502Z,829.75
2022-11-12T00:44:07.513Z,829.76
2022-11-12T00:45:07.525Z,829.76
2022-11-12T00:46:07.532Z,829.73
2022-11-12T00:47:07.659Z,829.75
2022-11-12T00:48:07.557Z,829.77
2022-11-12T00:49:07.572Z,829.80
2022-11-12T00:50:07.578Z,829.77
2022-11-12T00:51:07.602Z,829.79
2022-11-12T00:52:07.604Z,829.81
2022-11-12T00:53:07.622Z,829.84
2022-11-12T00:54:07.624Z,829.81
2022-11-12T00:55:07.647Z,829.79
2022-11-12T00:56:07.648Z,829.83
2022-11-12T00:57:07.667Z,829.83
2022-11-12T00:58:07.669Z,829.84
2022-11-12T00:59:07.681Z,829.84
2022-11-12T01:00:07.693Z,829.80
2022-11-12T01:01:07.943Z,829.80
2022-11-12T01:02:07.716Z,829.79
2022-11-12T01:03:07.838Z,829.77
2022-11-12T01:04:07.794Z,829.81
2022-11-12T01:05:07.756Z,829.79
2022-11-12T01:06:07.778Z,829.77
2022-11-12T01:07:07.841Z,829.80
2022-11-12T01:08:07.784Z,829.78
2022-11-12T01:09:07.796Z,829.78
2022-11-12T01:10:07.803Z,829.75
2022-11-12T01:11:07.816Z,829.82
2022-11-12T01:12:07.830Z,829.83
2022-11-12T01:13:07.844Z,829.81
2022-11-12T01:14:07.848Z,829.81
2022-11-12T01:15:07.863Z,829.81
2022-11-12T01:16:07.876Z,829.80
2022-11-12T01:17:07.892Z,829.76
2022-11-12T01:18:07.905Z,829.79
2022-11-12T01:19:08.022Z,829.77
2022-11-12T01:20:07.919Z,829.76
2022-11-12T01:21:07.932Z,829.73
2022-11-12T01:22:07.941Z,829.73
2022-11-12T01:23:07.958Z,829.73
2022-11-12T01:24:07.977Z,829.73
2022-11-12T01:25:07.979Z,829.74
2022-11-12T01:26:08.008Z,829.72
2022-11-12T01:27:08.018Z,829.72
2022-11-12T01:28:08.009Z,829.70
2022-11-12T01:29:08.021Z,829.71
2022-11-12T01:30:08.030Z,829.66
2022-11-12T01:31:08.045Z,829.66
2022-11-12T01:32:08.052Z,829.64
2022-11-12T01:33:08.070Z,829.66
2022-11-12T01:34:08.077Z,829.67
2022-11-12T01:35:08.209Z,829.62
2022-11-12T01:36:08.101Z,829.65
2022-11-12T01:37:08.119Z,829.70
2022-11-12T01:38:08.121Z,829.68
2022-11-12T01:39:08.134Z,829.66
2022-11-12T01:40:08.145Z,829.67
2022-11-12T01:41:08.158Z,829.67
2022-11-12T01:42:08.167Z,829.60
2022-11-12T01:43:08.180Z,829.61
2022-11-12T01:44:08.188Z,829.59
2022-11-12T01:45:08.205Z,829.59
2022-11-12T01:46:08.213Z,829.58
2022-11-12T01:47:08.226Z,829.55
2022-11-12T01:48:08.235Z,829.56
2022-11-12T01:49:08.249Z,829.57
2022-11-12T01:50:08.256Z,829.55
2022-11-12T01:51:08.380Z,829.57
2022-11-12T01:52:08.279Z,829.55
2022-11-12T01:53:08.291Z,829.57
2022-11-12T01:54:08.300Z,829.52
2022-11-12T01:55:08.315Z,829.52
2022-11-12T01:56:08.325Z,829.51
2022-11-12T01:57:08.340Z,829.48
2022-11-12T01:58:08.345Z,829.53
2022-11-12T01:59:08.360Z,829.49
2022-11-12T02:00:08.371Z,829.51
2022-11-12T02:01:08.416Z,829.50
2022-11-12T02:02:08.395Z,829.54
2022-11-12T02:03:08.405Z,829.46
2022-11-12T02:04:08.416Z,829.50
2022-11-12T02:05:08.436Z,829.47
2022-11-12T02:06:08.455Z,829.46
2022-11-12T02:07:08.641Z,829.48
2022-11-12T02:08:08.459Z,829.46
2022-11-12T02:09:08.473Z,829.48
2022-11-12T02:10:08.481Z,829.46
2022-11-12T02:11:08.495Z,829.46
2022-11-12T02:12:08.509Z,829.42
2022-11-12T02:13:08.517Z,829.44
2022-11-12T02:14:08.527Z,829.41
2022-11-12T02:15:08.539Z,829.41
2022-11-12T02:16:08.551Z,829.46
2022-11-12T02:17:08.563Z,829.43
2022-11-12T02:18:08.572Z,829.40
2022-11-12T02:19:08.583Z,829.48
2022-11-12T02:20:08.599Z,829.48
2022-11-12T02:21:08.607Z,829.47
2022-11-12T02:22:08.614Z,829.45
2022-11-12T02:23:08.753Z,829.47
2022-11-12T02:24:08.639Z,829.50
2022-11-12T02:25:08.653Z,829.46
2022-11-12T02:26:08.659Z,829.49
2022-11-12T02:27:08.672Z,829.52
2022-11-12T02:28:08.685Z,829.50
2022-11-12T02:29:08.696Z,829.51
2022-11-12T02:30:08.702Z,829.51
2022-11-12T02:31:08.720Z,829.48
2022-11-12T02:32:08.735Z,829.51
2022-11-12T02:33:08.747Z,829.51
2022-11-12T02:34:08.755Z,829.51
2022-11-12T02:35:08.759Z,829.49
2022-11-12T02:36:08.785Z,829.51
2022-11-12T02:37:08.788Z,829.53
2022-11-12T02:38:08.793Z,829.47
2022-11-12T02:39:08.916Z,829.45
2022-11-12T02:40:08.818Z,829.47
2022-11-12T02:41:08.826Z,829.44
2022-11-12T02:42:08.835Z,829.49
2022-11-12T02:43:08.851Z,829.50
2022-11-12T02:44:08.860Z,829.48
2022-11-12T02:45:08.872Z,829.48
2022-11-12T02:46:08.883Z,829.42
2022-11-12T02:47:08.909Z,829.43
2022-11-12T02:48:08.907Z,829.40
2022-11-12T02:49:08.913Z,829.43
2022-11-12T02:50:08.941Z,829.41
2022-11-12T02:51:08.938Z,829.40
2022-11-12T02:52:08.948Z,829.40
2022-11-12T02:53:08.958Z,829.36
2022-11-12T02:54:08.969Z,829.38
2022-11-12T02:55:09.094Z,829.35
2022-11-12T02:56:08.993Z,829.35
2022-11-12T02:57:09.004Z,829.33
2022-11-12T02:58:09.014Z,829.32
2022-11-12T02:59:09.026Z,829.28
2022-11-12T03:00:09.047Z,829.28
2022-11-12T03:01:09.110Z,829.31
2022-11-12T03:02:09.061Z,829.28
2022-11-12T03:03:09.068Z,829.27
2022-11-12T03:04:09.181Z,829.28
2022-11-12T03:05:09.101Z,829.28
2022-11-12T03:06:09.121Z,829.30
2022-11-12T03:07:09.182Z,829.31
2022-11-12T03:08:09.126Z,829.30
2022-11-12T03:09:09.133Z,829.33
2022-11-12T03:10:09.148Z,829.32
2022-11-12T03:11:09.273Z,829.29
2022-11-12T03:12:09.171Z,829.32
2022-11-12T03:13:09.177Z,829.36
2022-11-12T03:14:09.190Z,829.31
2022-11-12T03:15:09.200Z,829.33
2022-11-12T03:16:09.216Z,829.33
2022-11-12T03:17:09.222Z,829.36
2022-11-12T03:18:09.234Z,829.33
2022-11-12T03:19:09.297Z,829.32
2022-11-12T03:20:09.258Z,829.32
2022-11-12T03:21:09.277Z,829.32
2022-11-12T03:22:09.282Z,829.33
2022-11-12T03:23:09.287Z,829.30
2022-11-12T03:24:09.300Z,829.29
2022-11-12T03:25:09.311Z,829.31
2022-11-12T03:26:09.324Z,829.34
2022-11-12T03:27:09.445Z,829.30
2022-11-12T03:28:09.350Z,829.33
2022-11-12T03:29:09.355Z,829.27
2022-11-12T03:30:09.370Z,829.28
2022-11-12T03:31:09.374Z,829.27
2022-11-12T03:32:09.389Z,829.29
2022-11-12T03:33:09.399Z,829.27
2022-11-12T03:34:09.411Z,829.28
2022-11-12T03:35:09.422Z,829.25
2022-11-12T03:36:09.433Z,829.28
2022-11-12T03:37:09.472Z,829.28
2022-11-12T03:38:09.457Z,829.27
2022-11-12T03:39:09.466Z,829.26
2022-11-12T03:40:09.480Z,829.27
2022-11-12T03:41:09.489Z,829.25
2022-11-12T03:42:09.500Z,829.27
2022-11-12T03:43:09.617Z,829.30
2022-11-12T03:44:09.521Z,829.32
2022-11-12T03:45:09.531Z,829.26
2022-11-12T03:46:09.543Z,829.27
2022-11-12T03:47:09.551Z,829.27
2022-11-12T03:48:09.584Z,829.26
2022-11-12T03:49:09.573Z,829.26
2022-11-12T03:50:09.587Z,829.21
2022-11-12T03:51:09.619Z,829.19
2022-11-12T03:52:09.607Z,829.23
2022-11-12T03:53:09.632Z,829.21
2022-11-12T03:54:09.630Z,829.18
2022-11-12T03:55:09.641Z,829.20
2022-11-12T03:56:09.651Z,829.20
2022-11-12T03:57:09.662Z,829.23
2022-11-12T03:58:09.674Z,829.26
2022-11-12T03:59:09.797Z,829.25
2022-11-12T04:00:09.697Z,829.28
2022-11-12T04:01:09.733Z,829.28
2022-11-12T04:02:09.717Z,829.28
2022-11-12T04:03:09.736Z,829.24
2022-11-12T04:04:09.838Z,829.24
2022-11-12T04:05:09.749Z,829.25
2022-11-12T04:06:09.761Z,829.23
2022-11-12T04:07:09.847Z,829.24
2022-11-12T04:08:09.803Z,829.24
2022-11-12T04:09:09.794Z,829.24
2022-11-12T04:10:09.819Z,829.26
2022-11-12T04:11:09.813Z,829.25
2022-11-12T04:12:09.839Z,829.28
2022-11-12T04:13:09.833Z,829.26
2022-11-12T04:14:09.845Z,829.27
2022-11-12T04:15:10.016Z,829.24
2022-11-12T04:16:09.871Z,829.28
2022-11-12T04:17:09.879Z,829.26
2022-11-12T04:18:09.890Z,829.28
2022-11-12T04:19:09.901Z,829.25
2022-11-12T04:20:09.911Z,829.26
2022-11-12T04:21:09.920Z,829.25
2022-11-12T04:22:09.933Z,829.22
2022-11-12T04:23:09.946Z,829.22
2022-11-12T04:24:09.953Z,829.24
2022-11-12T04:25:09.963Z,829.21
2022-11-12T04:26:09.980Z,829.23
2022-11-12T04:27:09.985Z,829.19
2022-11-12T04:28:10.001Z,829.16
2022-11-12T04:29:10.007Z,829.17
2022-11-12T04:30:10.021Z,829.16
2022-11-12T04:31:10.139Z,829.17
2022-11-12T04:32:10.040Z,829.10
2022-11-12T04:33:10.049Z,829.10
2022-11-12T04:34:10.065Z,829.13
2022-11-12T04:35:10.147Z,829.13
2022-11-12T04:36:10.088Z,829.13
2022-11-12T04:37:10.093Z,829.11
2022-11-12T04:38:10.103Z,829.11
2022-11-12T04:39:10.113Z,829.10
2022-11-12T04:40:10.129Z,829.11
2022-11-12T04:41:10.135Z,829.11
2022-11-12T04:42:10.147Z,829.11
2022-11-12T04:43:10.159Z,829.11
2022-11-12T04:44:10.170Z,829.11
2022-11-12T04:45:10.177Z,829.08
2022-11-12T04:46:10.189Z,829.11
2022-11-12T04:47:10.311Z,829.09
2022-11-12T04:48:10.215Z,829.09
2022-11-12T04:49:10.220Z,829.09
2022-11-12T04:50:10.234Z,829.07
2022-11-12T04:51:10.241Z,829.09
2022-11-12T04:52:10.254Z,829.08
2022-11-12T04:53:10.265Z,829.04
2022-11-12T04:54:10.275Z,829.05
2022-11-12T04:55:10.386Z,829.06
2022-11-12T04:56:10.307Z,829.07
2022-11-12T04:57:10.309Z,829.06
2022-11-12T04:58:10.325Z,829.03
2022-11-12T04:59:10.329Z,828.99
2022-11-12T05:00:10.343Z,829.05
2022-11-12T05:01:10.438Z,829.02
2022-11-12T05:02:10.363Z,829.01
2022-11-12T05:03:10.490Z,829.02
2022-11-12T05:04:10.384Z,829.02
2022-11-12T05:05:10.438Z,829.01
2022-11-12T05:06:10.435Z,829.03
2022-11-12T05:07:10.491Z,829.02
2022-11-12T05:08:10.429Z,828.98
2022-11-12T05:09:10.441Z,828.99
2022-11-12T05:10:10.455Z,829.00
2022-11-12T05:11:12.967Z,829.00
2022-11-12T05:12:10.476Z,829.02
2022-11-12T05:13:10.479Z,829.06
2022-11-12T05:14:10.492Z,829.05
2022-11-12T05:15:10.506Z,829.03
2022-11-12T05:16:10.519Z,829.05
2022-11-12T05:17:10.523Z,829.04
2022-11-12T05:18:10.533Z,829.02
2022-11-12T05:19:10.658Z,829.04
2022-11-12T05:20:10.557Z,829.03
2022-11-12T05:21:10.567Z,829.08
2022-11-12T05:22:21.940Z,829.04
2022-11-12T05:23:10.586Z,829.03
2022-11-12T05:24:27.371Z,829.07
2022-11-12T05:25:10.612Z,829.03
2022-11-12T05:26:10.621Z,829.00
2022-11-12T05:27:10.631Z,829.03
2022-11-12T05:28:10.643Z,828.98
2022-11-12T05:29:10.656Z,828.99
2022-11-12T05:30:10.667Z,828.98
2022-11-12T05:31:10.677Z,828.94
2022-11-12T05:32:10.687Z,828.96
2022-11-12T05:33:10.704Z,829.02
2022-11-12T05:34:10.708Z,829.00
2022-11-12T05:35:10.833Z,829.00
2022-11-12T05:36:10.738Z,829.03
2022-11-12T05:37:10.739Z,829.05
2022-11-12T05:38:10.752Z,829.00
2022-11-12T05:39:10.761Z,829.00
2022-11-12T05:40:10.792Z,828.98
2022-11-12T05:41:11.611Z,828.99
2022-11-12T05:42:13.932Z,829.01
2022-11-12T05:43:10.806Z,829.02
2022-11-12T05:44:10.825Z,828.98
2022-11-12T05:45:10.830Z,828.98
2022-11-12T05:46:10.838Z,828.96
2022-11-12T05:47:10.853Z,828.99
2022-11-12T05:48:10.863Z,828.96
2022-11-12T05:49:10.872Z,828.96
2022-11-12T05:50:10.892Z,828.94
2022-11-12T05:51:13.424Z,828.93
2022-11-12T05:52:10.903Z,828.92
2022-11-12T05:53:10.917Z,828.93
2022-11-12T05:54:10.927Z,828.92
2022-11-12T05:55:10.938Z,828.94
2022-11-12T05:56:10.948Z,828.96
2022-11-12T05:57:10.957Z,828.94
2022-11-12T05:58:10.968Z,828.91
2022-11-12T05:59:10.977Z,828.88
2022-11-12T06:00:10.993Z,828.90
2022-11-12T06:01:11.003Z,828.90
2022-11-12T06:02:11.039Z,828.94
2022-11-12T06:03:11.022Z,828.89
2022-11-12T06:04:11.034Z,828.91
2022-11-12T06:05:11.045Z,828.92
2022-11-12T06:06:11.058Z,828.92
2022-11-12T06:07:11.279Z,828.92
2022-11-12T06:08:11.090Z,828.93
2022-11-12T06:09:11.106Z,828.94
2022-11-12T06:10:13.737Z,828.97
2022-11-12T06:11:11.111Z,828.95
2022-11-12T06:12:11.123Z,828.98
2022-11-12T06:13:11.133Z,828.91
2022-11-12T06:14:11.151Z,828.92
2022-11-12T06:15:11.168Z,829.01
2022-11-12T06:16:11.167Z,828.95
2022-11-12T06:17:11.177Z,828.95
2022-11-12T06:18:11.191Z,828.95
2022-11-12T06:19:11.297Z,828.94
2022-11-12T06:20:11.213Z,828.97
2022-11-12T06:21:11.220Z,828.98
2022-11-12T06:22:11.232Z,828.96
2022-11-12T06:23:11.359Z,828.95
2022-11-12T06:24:11.258Z,828.97
2022-11-12T06:25:11.263Z,828.94
2022-11-12T06:26:11.277Z,828.96
2022-11-12T06:27:11.291Z,828.98
2022-11-12T06:28:11.356Z,828.93
2022-11-12T06:29:11.310Z,828.93
2022-11-12T06:30:11.321Z,828.94
2022-11-12T06:31:11.330Z,828.91
2022-11-12T06:32:11.346Z,828.96
2022-11-12T06:33:11.354Z,828.97
2022-11-12T06:34:11.367Z,828.96
2022-11-12T06:35:11.378Z,828.93
2022-11-12T06:36:11.393Z,828.94
2022-11-12T06:37:11.399Z,828.93
2022-11-12T06:38:11.411Z,828.92
2022-11-12T06:39:11.532Z,828.94
2022-11-12T06:40:11.433Z,828.90
2022-11-12T06:41:11.445Z,828.90
2022-11-12T06:42:11.456Z,828.89
2022-11-12T06:43:11.466Z,828.89
2022-11-12T06:44:11.478Z,828.89
2022-11-12T06:45:11.487Z,828.89
2022-11-12T06:46:11.502Z,828.89
2022-11-12T06:47:11.513Z,828.91
2022-11-12T06:48:11.523Z,828.91
2022-11-12T06:49:11.537Z,828.90
2022-11-12T06:50:11.554Z,828.91
2022-11-12T06:51:11.558Z,828.90
2022-11-12T06:52:16.363Z,828.87
2022-11-12T06:53:11.579Z,828.89
2022-11-12T06:54:11.589Z,828.91
2022-11-12T06:55:11.718Z,828.94
2022-11-12T06:56:11.618Z,828.90
2022-11-12T06:57:11.623Z,828.95
2022-11-12T06:58:11.639Z,828.93
2022-11-12T06:59:11.645Z,828.92
2022-11-12T07:00:11.683Z,828.91
2022-11-12T07:01:12.444Z,828.98
2022-11-12T07:02:11.740Z,828.92
2022-11-12T07:03:11.690Z,828.93
2022-11-12T07:04:11.702Z,828.89
2022-11-12T07:05:11.719Z,828.93
2022-11-12T07:06:11.729Z,828.95
2022-11-12T07:07:11.812Z,828.93
2022-11-12T07:08:11.745Z,828.92
2022-11-12T07:09:11.759Z,828.93
2022-11-12T07:10:11.783Z,828.93
2022-11-12T07:11:11.900Z,828.93
2022-11-12T07:12:11.792Z,828.92
2022-11-12T07:13:11.803Z,828.93
2022-11-12T07:14:11.812Z,828.93
2022-11-12T07:15:11.843Z,828.90
2022-11-12T07:16:11.835Z,828.89
2022-11-12T07:17:11.849Z,828.91
2022-11-12T07:18:11.854Z,828.93
2022-11-12T07:19:11.868Z,828.92
2022-11-12T07:20:11.878Z,828.93
2022-11-12T07:21:11.893Z,828.88
2022-11-12T07:22:11.901Z,828.90
2022-11-12T07:23:11.915Z,828.91
2022-11-12T07:24:11.923Z,828.90
2022-11-12T07:25:11.936Z,828.90
2022-11-12T07:26:11.944Z,828.89
2022-11-12T07:27:12.075Z,828.88
2022-11-12T07:28:11.968Z,828.90
2022-11-12T07:29:14.678Z,828.90
2022-11-12T07:30:11.990Z,828.87
2022-11-12T07:31:12.002Z,828.88
2022-11-12T07:32:12.014Z,828.90
2022-11-12T07:33:12.032Z,828.86
2022-11-12T07:34:12.036Z,828.91
2022-11-12T07:35:12.049Z,828.93
2022-11-12T07:36:12.060Z,828.87
2022-11-12T07:37:12.072Z,828.87
2022-11-12T07:38:12.086Z,828.89
2022-11-12T07:39:12.097Z,828.91
2022-11-12T07:40:12.104Z,828.90
2022-11-12T07:41:12.118Z,828.88
2022-11-12T07:42:12.127Z,828.89
2022-11-12T07:43:12.251Z,828.91
2022-11-12T07:44:12.168Z,828.94
2022-11-12T07:45:12.178Z,828.93
2022-11-12T07:46:12.179Z,828.92
2022-11-12T07:47:12.203Z,828.91
2022-11-12T07:48:12.196Z,828.92
2022-11-12T07:49:12.222Z,828.92
2022-11-12T07:50:12.221Z,828.93
2022-11-12T07:51:12.232Z,828.92
2022-11-12T07:52:12.251Z,828.94
2022-11-12T07:53:12.257Z,828.94
2022-11-12T07:54:12.367Z,828.93
2022-11-12T07:55:12.277Z,828.90
2022-11-12T07:56:12.309Z,828.88
2022-11-12T07:57:12.301Z,828.89
2022-11-12T07:58:12.314Z,828.92
2022-11-12T07:59:12.445Z,828.91
2022-11-12T08:00:12.347Z,828.94
2022-11-12T08:01:12.447Z,828.94
2022-11-12T08:02:12.356Z,828.93
2022-11-12T08:03:12.372Z,828.98
2022-11-12T08:04:12.380Z,828.98
2022-11-12T08:05:17.611Z,828.98
2022-11-12T08:06:12.403Z,828.98
2022-11-12T08:07:12.510Z,829.00
2022-11-12T08:08:12.453Z,829.00
2022-11-12T08:09:12.445Z,828.99
2022-11-12T08:10:12.453Z,829.05
2022-11-12T08:11:12.464Z,829.02
2022-11-12T08:12:12.474Z,829.02
2022-11-12T08:13:12.489Z,829.01
2022-11-12T08:14:12.500Z,829.00
2022-11-12T08:15:12.623Z,829.01
2022-11-12T08:16:12.524Z,829.02
2022-11-12T08:17:12.537Z,829.03
2022-11-12T08:18:12.546Z,829.06
2022-11-12T08:19:12.571Z,829.04
2022-11-12T08:20:12.572Z,829.06
2022-11-12T08:21:12.587Z,829.04
2022-11-12T08:22:12.597Z,829.10
2022-11-12T08:23:12.617Z,829.08
2022-11-12T08:24:12.620Z,829.07
2022-11-12T08:25:12.635Z,829.11
2022-11-12T08:26:12.642Z,829.06
2022-11-12T08:27:12.662Z,829.05
2022-11-12T08:28:12.669Z,829.06
2022-11-12T08:29:12.693Z,829.08
2022-11-12T08:30:12.729Z,829.15
2022-11-12T08:31:12.821Z,829.10
2022-11-12T08:32:12.721Z,829.14
2022-11-12T08:33:12.732Z,829.13
2022-11-12T08:34:15.075Z,829.11
2022-11-12T08:35:12.759Z,829.11
2022-11-12T08:36:12.768Z,829.08
2022-11-12T08:37:12.783Z,829.10
2022-11-12T08:38:12.797Z,829.08
2022-11-12T08:39:12.807Z,829.07
2022-11-12T08:40:12.818Z,829.07
2022-11-12T08:41:12.832Z,829.09
2022-11-12T08:42:12.842Z,829.07
2022-11-12T08:43:12.860Z,829.07
2022-11-12T08:44:12.868Z,829.09
2022-11-12T08:45:12.881Z,829.14
2022-11-12T08:46:12.898Z,829.11
2022-11-12T08:47:13.028Z,829.08
2022-11-12T08:48:12.918Z,829.12
2022-11-12T08:49:12.931Z,829.09
2022-11-12T08:50:12.942Z,829.11
2022-11-12T08:51:12.958Z,829.11
2022-11-12T08:52:12.969Z,829.11
2022-11-12T08:53:12.989Z,829.12
2022-11-12T08:54:13.000Z,829.14
2022-11-12T08:55:13.008Z,829.16
2022-11-12T08:56:13.025Z,829.19
2022-11-12T08:57:13.034Z,829.18
2022-11-12T08:58:13.049Z,829.15
2022-11-12T08:59:13.069Z,829.23
2022-11-12T09:00:13.073Z,829.17
2022-11-12T09:01:13.149Z,829.20
2022-11-12T09:02:13.105Z,829.23
2022-11-12T09:03:13.228Z,829.22
2022-11-12T09:04:13.138Z,829.17
2022-11-12T09:05:13.136Z,829.21
2022-11-12T09:06:13.155Z,829.23
2022-11-12T09:07:43.332Z,829.22
2022-11-12T09:08:13.312Z,829.24
2022-11-12T09:09:13.188Z,829.26
2022-11-12T09:10:13.202Z,829.22
2022-11-12T09:11:13.216Z,829.22
2022-11-12T09:12:19.084Z,829.25
2022-11-12T09:13:13.246Z,829.24
2022-11-12T09:14:13.307Z,829.24
2022-11-12T09:16:13.276Z,829.22
2022-11-12T09:17:13.290Z,829.25
2022-11-12T09:18:13.307Z,829.25
2022-11-12T09:19:13.429Z,829.26
2022-11-12T09:20:13.330Z,829.27
2022-11-12T09:21:13.345Z,829.25
2022-11-12T09:22:13.357Z,829.26
2022-11-12T09:23:13.372Z,829.29
2022-11-12T09:24:13.381Z,829.24
2022-11-12T09:25:13.394Z,829.25
2022-11-12T09:26:13.407Z,829.26
2022-11-12T09:27:13.421Z,829.27
2022-11-12T09:28:13.440Z,829.25
2022-11-12T09:29:13.459Z,829.23
2022-11-12T09:30:13.468Z,829.26
2022-11-12T09:31:13.474Z,829.28
2022-11-12T09:32:13.486Z,829.27
2022-11-12T09:33:13.509Z,829.26
2022-11-12T09:34:13.515Z,829.26
2022-11-12T09:35:13.641Z,829.26
2022-11-12T09:36:13.543Z,829.27
2022-11-12T09:37:13.558Z,829.26
2022-11-12T09:38:13.572Z,829.25
2022-11-12T09:39:13.583Z,829.27
2022-11-12T09:40:13.594Z,829.23
2022-11-12T09:41:13.637Z,829.23
2022-11-12T09:42:13.628Z,829.25
2022-11-12T09:43:13.640Z,829.19
2022-11-12T09:44:13.651Z,829.23
2022-11-12T09:45:13.668Z,829.20
2022-11-12T09:46:27.291Z,829.26
2022-11-12T09:47:13.704Z,829.24
2022-11-12T09:48:13.706Z,829.21
2022-11-12T09:49:13.720Z,829.24
2022-11-12T09:50:13.736Z,829.22
2022-11-12T09:51:13.861Z,829.23
2022-11-12T09:52:13.761Z,829.22
2022-11-12T09:53:13.776Z,829.25
2022-11-12T09:54:13.790Z,829.25
2022-11-12T09:55:13.806Z,829.31
2022-11-12T09:56:13.821Z,829.23
2022-11-12T09:57:13.834Z,829.28
2022-11-12T09:58:13.849Z,829.30
2022-11-12T09:59:13.869Z,829.28
2022-11-12T10:00:13.875Z,829.24
2022-11-12T10:01:13.948Z,829.23
2022-11-12T10:02:13.904Z,829.19
2022-11-12T10:03:13.927Z,829.23
2022-11-12T10:04:13.944Z,829.23
2022-11-12T10:05:13.960Z,829.22
2022-11-12T10:06:18.186Z,829.20
2022-11-12T10:07:14.218Z,829.21
2022-11-12T10:08:13.992Z,829.21
2022-11-12T10:09:14.025Z,829.20
2022-11-12T10:10:14.041Z,829.17
2022-11-12T10:11:14.036Z,829.18
2022-11-12T10:12:14.061Z,829.20
2022-11-12T10:13:14.068Z,829.16
2022-11-12T10:14:14.091Z,829.17
2022-11-12T10:15:14.096Z,829.11
2022-11-12T10:16:14.110Z,829.08
2022-11-12T10:17:14.127Z,829.08
2022-11-12T10:18:14.153Z,829.07
2022-11-12T10:19:14.180Z,829.10
2022-11-12T10:20:14.171Z,829.05
2022-11-12T10:21:14.185Z,829.07
2022-11-12T10:22:14.196Z,829.09
2022-11-12T10:23:14.329Z,829.08
2022-11-12T10:24:14.244Z,829.05
2022-11-12T10:25:14.246Z,829.01
2022-11-12T10:26:14.257Z,829.02
2022-11-12T10:27:14.273Z,828.99
2022-11-12T10:28:14.288Z,829.00
2022-11-12T10:29:14.304Z,828.99
2022-11-12T10:30:14.321Z,828.96
2022-11-12T10:31:14.332Z,828.97
2022-11-12T10:32:14.347Z,828.92
2022-11-12T10:33:14.369Z,828.93
2022-11-12T10:34:14.473Z,828.90
2022-11-12T10:35:14.394Z,828.88
2022-11-12T10:36:14.405Z,828.89
2022-11-12T10:37:14.424Z,828.82
2022-11-12T10:38:14.435Z,828.83
2022-11-12T10:39:14.568Z,828.82
2022-11-12T10:40:14.467Z,828.83
2022-11-12T10:41:14.483Z,828.78
2022-11-12T10:42:14.497Z,828.80
2022-11-12T10:43:14.512Z,828.77
2022-11-12T10:44:14.626Z,828.80
2022-11-12T10:45:14.544Z,828.76
2022-11-12T10:46:14.566Z,828.75
2022-11-12T10:47:14.576Z,828.77
2022-11-12T10:48:14.585Z,828.76
2022-11-12T10:49:14.614Z,828.75
2022-11-12T10:50:14.617Z,828.77
2022-11-12T10:51:14.635Z,828.74
2022-11-12T10:52:14.645Z,828.76
2022-11-12T10:53:14.664Z,828.76
2022-11-12T10:54:14.678Z,828.76
2022-11-12T10:55:14.805Z,828.71
2022-11-12T10:56:14.708Z,828.66
2022-11-12T10:57:14.727Z,828.68
2022-11-12T10:58:14.737Z,828.68
2022-11-12T10:59:14.762Z,828.65
2022-11-12T11:00:14.784Z,828.66
2022-11-12T11:01:14.868Z,828.63
2022-11-12T11:02:14.918Z,828.60
2022-11-12T11:03:14.815Z,828.59
2022-11-12T11:04:14.828Z,828.57
2022-11-12T11:05:14.847Z,828.58
2022-11-12T11:06:14.884Z,828.55
2022-11-12T11:07:14.918Z,828.57
2022-11-12T11:08:14.890Z,828.56
2022-11-12T11:09:14.906Z,828.57
2022-11-12T11:10:14.921Z,828.56
2022-11-12T11:11:15.053Z,828.55
2022-11-12T11:12:14.954Z,828.56
2022-11-12T11:13:14.967Z,828.56
2022-11-12T11:14:14.983Z,828.59
2022-11-12T11:15:15.009Z,828.58
2022-11-12T11:16:15.019Z,828.58
2022-11-12T11:17:15.047Z,828.57
2022-11-12T11:18:15.048Z,828.56
2022-11-12T11:19:15.063Z,828.58
2022-11-12T11:20:15.193Z,828.56
2022-11-12T11:21:15.091Z,828.55
2022-11-12T11:22:15.106Z,828.54
2022-11-12T11:23:15.117Z,828.54
2022-11-12T11:24:15.147Z,828.48
2022-11-12T11:25:15.150Z,828.48
2022-11-12T11:26:15.163Z,828.49
2022-11-12T11:27:15.288Z,828.50
2022-11-12T11:28:15.194Z,828.49
2022-11-12T11:29:15.209Z,828.47
2022-11-12T11:30:15.316Z,828.46
2022-11-12T11:31:15.238Z,828.42
2022-11-12T11:32:15.252Z,828.40
2022-11-12T11:33:15.269Z,828.42
2022-11-12T11:34:15.284Z,828.40
2022-11-12T11:35:15.295Z,828.37
2022-11-12T11:36:15.314Z,828.41
2022-11-12T11:37:15.325Z,828.36
2022-11-12T11:38:15.344Z,828.36
2022-11-12T11:39:15.358Z,828.35
2022-11-12T11:40:15.373Z,828.31
2022-11-12T11:41:15.388Z,828.33
2022-11-12T11:42:15.404Z,828.36
2022-11-12T11:43:15.635Z,828.34
2022-11-12T11:44:15.576Z,828.36
2022-11-12T11:45:15.447Z,828.33
2022-11-12T11:46:15.472Z,828.36
2022-11-12T11:47:15.481Z,828.35
2022-11-12T11:48:15.492Z,828.34
2022-11-12T11:49:15.509Z,828.31
2022-11-12T11:50:15.526Z,828.31
2022-11-12T11:51:15.539Z,828.31
2022-11-12T11:52:15.552Z,828.28
2022-11-12T11:53:15.573Z,828.26
2022-11-12T11:54:15.586Z,828.28
2022-11-12T11:55:15.604Z,828.22
2022-11-12T11:56:15.621Z,828.22
2022-11-12T11:57:15.628Z,828.24
2022-11-12T11:58:15.642Z,828.27
2022-11-12T11:59:15.766Z,828.23
2022-11-12T12:00:15.677Z,828.25
2022-11-12T12:01:15.687Z,828.21
2022-11-12T12:02:15.703Z,828.21
2022-11-12T12:03:15.742Z,828.20
2022-11-12T12:04:15.735Z,828.21
2022-11-12T12:05:15.748Z,828.17
2022-11-12T12:06:15.765Z,828.17
2022-11-12T12:07:15.829Z,828.14
2022-11-12T12:08:15.799Z,828.15
2022-11-12T12:09:15.807Z,828.10
2022-11-12T12:10:15.825Z,828.12
2022-11-12T12:11:15.839Z,828.15
2022-11-12T12:12:15.856Z,828.12
2022-11-12T12:13:15.869Z,828.11
2022-11-12T12:14:15.910Z,828.09
2022-11-12T12:15:16.014Z,828.06
2022-11-12T12:16:15.918Z,828.07
2022-11-12T12:17:15.928Z,828.07
2022-11-12T12:18:15.964Z,828.07
2022-11-12T12:19:15.960Z,828.04
2022-11-12T12:20:15.976Z,828.03
2022-11-12T12:21:15.990Z,828.05
2022-11-12T12:22:16.007Z,828.06
2022-11-12T12:23:16.021Z,828.04
2022-11-12T12:24:16.040Z,828.00
2022-11-12T12:25:16.050Z,827.97
2022-11-12T12:26:16.067Z,827.97
2022-11-12T12:27:16.081Z,827.97
2022-11-12T12:28:16.102Z,827.97
2022-11-12T12:29:16.113Z,827.97